createdAt,value
2018-10-15T00:00:19.987Z,13.10
2018-10-15T00:02:48.911Z,14.33
2018-10-15T00:05:17.855Z,17.77
2018-10-15T00:07:46.814Z,14.55
2018-10-15T00:10:15.770Z,14.40
2018-10-15T00:12:44.755Z,15.93
2018-10-15T00:15:25.642Z,14.00
2018-10-15T00:17:54.678Z,15.05
2018-10-15T00:20:24.000Z,15.33
2018-10-15T00:22:53.704Z,13.50
2018-10-15T00:25:22.714Z,14.35
2018-10-15T00:27:51.675Z,11.48
2018-10-15T00:30:20.614Z,14.17
2018-10-15T00:32:49.617Z,18.10
2018-10-15T00:35:18.546Z,17.45
2018-10-15T00:37:47.495Z,13.20
2018-10-15T00:40:16.423Z,13.60
2018-10-15T00:42:45.393Z,14.10
2018-10-15T00:45:14.952Z,14.10
2018-10-15T00:47:43.882Z,14.73
2018-10-15T00:50:13.959Z,14.70
2018-10-15T00:52:43.318Z,15.50
2018-10-15T00:55:13.255Z,14.90
2018-10-15T00:57:42.282Z,17.85
2018-10-15T01:00:13.485Z,14.10
2018-10-15T01:02:42.489Z,13.90
2018-10-15T01:05:12.305Z,14.10
2018-10-15T01:07:41.671Z,14.87
2018-10-15T01:10:11.935Z,16.30
2018-10-15T01:15:29.918Z,14.55
2018-10-15T01:17:58.876Z,16.10
2018-10-15T01:20:27.846Z,12.00
2018-10-15T01:22:56.779Z,18.45
2018-10-15T01:25:25.713Z,12.93
2018-10-15T01:27:54.642Z,14.73
2018-10-15T01:30:23.606Z,15.72
2018-10-15T01:32:52.555Z,17.80
2018-10-15T01:35:21.507Z,13.40
2018-10-15T01:37:50.443Z,17.87
2018-10-15T01:40:19.435Z,14.05
2018-10-15T01:42:48.383Z,17.42
2018-10-15T01:45:17.343Z,13.60
2018-10-15T01:47:46.295Z,13.95
2018-10-15T01:50:15.252Z,15.32
2018-10-15T01:52:44.218Z,16.95
2018-10-15T01:55:13.196Z,14.58
2018-10-15T01:57:42.133Z,15.95
2018-10-15T02:00:11.324Z,15.00
2018-10-15T02:02:40.336Z,15.72
2018-10-15T02:05:09.740Z,13.58
2018-10-15T02:07:38.702Z,17.15
2018-10-15T02:10:08.135Z,12.58
2018-10-15T02:12:37.099Z,15.60
2018-10-15T02:15:06.324Z,17.20
2018-10-15T02:17:35.275Z,14.47
2018-10-15T02:20:04.387Z,13.68
2018-10-15T02:22:33.326Z,20.50
2018-10-15T02:25:02.279Z,18.12
2018-10-15T02:27:31.202Z,13.48
2018-10-15T02:30:00.164Z,14.75
2018-10-15T02:32:29.135Z,20.20
2018-10-15T02:34:58.088Z,14.65
2018-10-15T02:37:27.011Z,15.90
2018-10-15T02:39:55.986Z,16.07
2018-10-15T02:42:24.927Z,16.27
2018-10-15T02:44:53.875Z,17.90
2018-10-15T02:47:22.803Z,15.03
2018-10-15T02:49:51.747Z,14.80
2018-10-15T02:52:20.675Z,17.48
2018-10-15T02:54:49.630Z,17.80
2018-10-15T02:57:18.554Z,15.43
2018-10-15T02:59:47.509Z,22.90
2018-10-15T03:02:16.442Z,18.27
2018-10-15T03:04:45.604Z,17.98
2018-10-15T03:07:14.530Z,19.77
2018-10-15T03:09:43.492Z,18.37
2018-10-15T03:12:12.479Z,20.68
2018-10-15T03:14:41.431Z,22.40
2018-10-15T03:17:10.485Z,21.23
2018-10-15T03:19:39.466Z,29.13
2018-10-15T03:22:08.735Z,21.57
2018-10-15T03:24:37.771Z,21.65
2018-10-15T03:27:06.723Z,20.70
2018-10-15T03:29:35.723Z,21.12
2018-10-15T03:32:04.714Z,20.37
2018-10-15T03:34:33.642Z,21.23
2018-10-15T03:37:02.598Z,19.92
2018-10-15T03:39:31.538Z,19.63
2018-10-15T03:42:00.614Z,22.22
2018-10-15T03:44:29.551Z,18.75
2018-10-15T03:46:58.560Z,23.30
2018-10-15T03:49:27.520Z,21.83
2018-10-15T03:51:56.479Z,20.02
2018-10-15T03:54:25.411Z,18.30
2018-10-15T03:56:54.370Z,18.67
2018-10-15T03:59:23.321Z,19.65
2018-10-15T04:01:52.303Z,20.75
2018-10-15T04:04:21.264Z,18.55
2018-10-15T04:06:50.230Z,23.40
2018-10-15T04:09:19.170Z,24.60
2018-10-15T04:11:48.127Z,28.15
2018-10-15T04:14:17.091Z,23.65
2018-10-15T04:16:46.082Z,23.52
2018-10-15T04:19:15.027Z,27.05
2018-10-15T04:21:43.991Z,25.65
2018-10-15T04:24:12.943Z,22.45
2018-10-15T04:26:41.917Z,23.20
2018-10-15T04:29:11.036Z,22.73
2018-10-15T04:31:39.992Z,24.60
2018-10-15T04:34:08.928Z,22.87
2018-10-15T04:36:37.898Z,27.65
2018-10-15T04:39:08.830Z,22.42
2018-10-15T04:41:38.642Z,27.05
2018-10-15T04:44:07.819Z,22.52
2018-10-15T04:46:36.791Z,21.70
2018-10-15T04:49:05.825Z,27.25
2018-10-15T04:51:34.751Z,27.37
2018-10-15T04:54:03.710Z,28.75
2018-10-15T04:56:32.692Z,27.15
2018-10-15T04:59:01.623Z,35.80
2018-10-15T05:01:30.591Z,27.55
2018-10-15T05:03:59.546Z,32.93
2018-10-15T05:06:28.531Z,27.25
2018-10-15T05:08:57.479Z,31.68
2018-10-15T05:11:26.447Z,25.85
2018-10-15T05:13:55.402Z,27.67
2018-10-15T05:16:24.428Z,23.65
2018-10-15T05:18:53.406Z,26.40
2018-10-15T05:21:22.499Z,28.12
2018-10-15T05:23:51.390Z,24.25
2018-10-15T05:26:20.730Z,31.50
2018-10-15T05:28:49.707Z,30.68
2018-10-15T05:31:18.699Z,30.90
2018-10-15T05:33:47.666Z,31.30
2018-10-15T05:36:16.695Z,30.40
2018-10-15T05:38:45.676Z,23.85
2018-10-15T05:41:14.659Z,23.57
2018-10-15T05:43:43.683Z,26.33
2018-10-15T05:46:12.684Z,26.17
2018-10-15T05:48:41.697Z,26.15
2018-10-15T05:51:10.667Z,24.43
2018-10-15T05:53:39.678Z,22.58
2018-10-15T05:56:08.712Z,23.30
2018-10-15T05:58:37.727Z,22.55
2018-10-15T06:01:06.732Z,23.98
2018-10-15T06:03:35.719Z,24.70
2018-10-15T06:06:04.856Z,23.32
2018-10-15T06:08:33.761Z,27.52
2018-10-15T06:11:02.747Z,23.47
2018-10-15T06:13:31.804Z,28.07
2018-10-15T06:16:00.732Z,29.25
2018-10-15T06:18:29.743Z,22.45
2018-10-15T06:20:58.784Z,25.77
2018-10-15T06:23:27.738Z,27.20
2018-10-15T06:25:56.710Z,25.27
2018-10-15T06:28:25.758Z,27.05
2018-10-15T06:30:54.643Z,24.95
2018-10-15T06:33:36.778Z,25.02
2018-10-15T06:36:06.008Z,28.10
2018-10-15T06:38:35.256Z,24.27
2018-10-15T06:41:04.280Z,25.23
2018-10-15T06:43:33.306Z,23.35
2018-10-15T06:46:02.253Z,23.40
2018-10-15T06:48:31.203Z,28.00
2018-10-15T06:51:00.183Z,24.47
2018-10-15T06:53:29.183Z,28.40
2018-10-15T06:55:58.183Z,31.90
2018-10-15T06:58:27.134Z,31.57
2018-10-15T07:00:56.113Z,28.00
2018-10-15T07:03:25.100Z,26.33
2018-10-15T07:05:54.136Z,29.15
2018-10-15T07:08:23.107Z,26.70
2018-10-15T07:10:52.047Z,23.83
2018-10-15T07:13:21.127Z,23.70
2018-10-15T07:15:49.951Z,24.10
2018-10-15T07:18:19.000Z,23.94
2018-10-15T07:20:47.947Z,23.23
2018-10-15T07:23:16.866Z,23.75
2018-10-15T07:25:45.798Z,20.50
2018-10-15T07:28:14.823Z,23.97
2018-10-15T07:30:43.722Z,23.33
2018-10-15T07:33:12.670Z,21.93
2018-10-15T07:35:41.598Z,20.53
2018-10-15T07:38:10.580Z,22.63
2018-10-15T07:40:39.511Z,22.37
2018-10-15T07:43:08.540Z,21.50
2018-10-15T07:45:38.403Z,25.27
2018-10-15T07:48:07.493Z,26.33
2018-10-15T07:50:36.419Z,22.05
2018-10-15T07:53:05.423Z,19.32
2018-10-15T07:55:34.478Z,20.90
2018-10-15T07:58:03.632Z,21.00
2018-10-15T08:00:32.613Z,20.25
2018-10-15T08:03:01.587Z,18.70
2018-10-15T08:05:30.546Z,19.43
2018-10-15T08:07:59.552Z,20.77
2018-10-15T08:10:28.514Z,16.90
2018-10-15T08:12:57.487Z,24.50
2018-10-15T08:15:26.547Z,19.93
2018-10-15T08:17:55.434Z,14.10
2018-10-15T08:20:24.572Z,22.97
2018-10-15T08:22:53.524Z,15.40
2018-10-15T08:25:22.495Z,18.75
2018-10-15T08:27:51.484Z,19.17
2018-10-15T08:30:20.807Z,17.07
2018-10-15T08:32:49.881Z,15.18
2018-10-15T08:35:18.901Z,13.90
2018-10-15T08:37:47.816Z,12.63
2018-10-15T08:40:18.108Z,13.60
2018-10-15T08:42:48.395Z,15.90
2018-10-15T08:45:19.567Z,15.25
2018-10-15T08:47:49.010Z,12.55
2018-10-15T08:50:18.539Z,14.83
2018-10-15T08:52:48.513Z,12.90
2018-10-15T08:55:17.899Z,16.10
2018-10-15T08:57:46.862Z,16.95
2018-10-15T09:00:19.114Z,15.80
2018-10-15T09:02:48.649Z,13.80
2018-10-15T09:05:17.838Z,10.08
2018-10-15T09:07:47.736Z,16.17
2018-10-15T09:10:17.785Z,15.10
2018-10-15T09:12:46.803Z,12.00
2018-10-15T09:15:22.094Z,15.63
2018-10-15T09:17:51.189Z,13.75
2018-10-15T09:20:20.296Z,14.00
2018-10-15T09:22:49.240Z,13.63
2018-10-15T09:25:19.294Z,13.40
2018-10-15T09:27:48.541Z,11.95
2018-10-15T09:30:18.927Z,13.63
2018-10-15T09:32:47.951Z,11.23
2018-10-15T09:35:17.878Z,14.97
2018-10-15T09:37:47.566Z,10.98
2018-10-15T09:40:17.858Z,15.00
2018-10-15T09:42:47.311Z,11.93
2018-10-15T09:45:17.586Z,13.83
2018-10-15T09:47:47.893Z,15.47
2018-10-15T09:50:16.984Z,15.30
2018-10-15T09:52:45.955Z,13.25
2018-10-15T09:55:15.571Z,10.82
2018-10-15T09:57:44.798Z,10.20
2018-10-15T10:00:20.170Z,10.40
2018-10-15T10:02:51.476Z,17.70
2018-10-15T10:05:20.450Z,12.20
2018-10-15T10:07:49.667Z,14.60
2018-10-15T10:10:18.750Z,11.93
2018-10-15T10:12:47.719Z,18.03
2018-10-15T10:15:17.067Z,14.20
2018-10-15T10:17:46.578Z,12.03
2018-10-15T10:20:16.071Z,11.83
2018-10-15T10:22:45.192Z,12.50
2018-10-15T10:25:15.274Z,16.02
2018-10-15T10:27:44.255Z,12.95
2018-10-15T10:30:14.498Z,12.43
2018-10-15T10:32:43.816Z,11.40
2018-10-15T10:36:09.123Z,14.17
2018-10-15T10:38:49.267Z,13.05
2018-10-15T10:41:18.283Z,9.47
2018-10-15T10:43:47.251Z,12.55
2018-10-15T10:46:16.246Z,11.78
2018-10-15T10:48:45.218Z,12.15
2018-10-15T10:51:14.246Z,10.10
2018-10-15T10:53:43.214Z,9.70
2018-10-15T10:56:12.222Z,15.37
2018-10-15T10:58:41.287Z,13.37
2018-10-15T11:01:10.494Z,12.23
2018-10-15T11:03:39.979Z,8.90
2018-10-15T11:06:09.156Z,17.37
2018-10-15T11:08:38.202Z,14.40
2018-10-15T11:11:07.675Z,14.43
2018-10-15T11:13:36.646Z,9.83
2018-10-15T11:16:05.978Z,11.88
2018-10-15T11:18:35.051Z,13.43
2018-10-15T11:21:04.129Z,17.73
2018-10-15T11:23:33.162Z,12.65
2018-10-15T11:26:02.156Z,10.20
2018-10-15T11:28:31.127Z,9.47
2018-10-15T11:31:00.121Z,9.00
2018-10-15T11:33:29.179Z,12.63
2018-10-15T11:35:58.167Z,14.00
2018-10-15T11:38:27.148Z,9.55
2018-10-15T11:40:56.108Z,12.18
2018-10-15T11:43:25.204Z,13.93
2018-10-15T11:45:54.139Z,11.60
2018-10-15T11:48:23.115Z,8.88
2018-10-15T11:50:52.086Z,20.72
2018-10-15T11:53:21.076Z,9.90
2018-10-15T11:55:50.047Z,11.97
2018-10-15T11:58:19.012Z,12.37
2018-10-15T12:00:47.994Z,9.73
2018-10-15T12:03:17.048Z,12.35
2018-10-15T12:05:46.028Z,16.82
2018-10-15T12:08:15.026Z,9.70
2018-10-15T12:10:43.995Z,12.10
2018-10-15T12:13:12.979Z,9.43
2018-10-15T12:15:42.179Z,9.10
2018-10-15T12:18:11.172Z,9.73
2018-10-15T12:20:40.115Z,10.15
2018-10-15T12:23:09.090Z,11.08
2018-10-15T12:25:38.067Z,11.60
2018-10-15T12:28:07.022Z,11.67
2018-10-15T12:30:35.983Z,8.83
2018-10-15T12:33:05.379Z,10.53
2018-10-15T12:35:34.327Z,9.67
2018-10-15T12:38:03.319Z,9.50
2018-10-15T12:40:32.272Z,15.60
2018-10-15T12:43:01.750Z,10.67
2018-10-15T12:45:36.111Z,9.13
2018-10-15T12:48:05.472Z,10.87
2018-10-15T12:50:34.449Z,13.10
2018-10-15T12:53:03.523Z,8.50
2018-10-15T12:55:32.461Z,11.70
2018-10-15T12:58:01.447Z,9.47
2018-10-15T13:00:30.414Z,13.07
2018-10-15T13:02:59.378Z,8.58
2018-10-15T13:05:29.783Z,14.43
2018-10-15T13:07:59.296Z,11.57
2018-10-15T13:10:29.059Z,9.90
2018-10-15T13:12:58.040Z,10.75
2018-10-15T13:15:27.035Z,17.60
2018-10-15T13:17:56.485Z,9.90
2018-10-15T13:20:25.471Z,8.80
2018-10-15T13:22:54.475Z,11.83
2018-10-15T13:25:23.411Z,7.63
2018-10-15T13:27:52.423Z,10.15
2018-10-15T13:30:21.370Z,8.48
2018-10-15T13:32:51.251Z,12.75
2018-10-15T13:35:20.203Z,7.67
2018-10-15T13:37:49.167Z,7.83
2018-10-15T13:40:18.103Z,9.40
2018-10-15T13:42:47.131Z,13.03
2018-10-15T13:45:16.101Z,8.17
2018-10-15T13:47:45.075Z,7.47
2018-10-15T13:50:14.020Z,7.67
2018-10-15T13:52:43.133Z,9.23
2018-10-15T13:55:12.875Z,8.47
2018-10-15T13:57:42.489Z,12.05
2018-10-15T14:00:22.835Z,9.38
2018-10-15T14:02:51.826Z,11.43
2018-10-15T14:05:20.783Z,11.07
2018-10-15T14:07:49.760Z,11.23
2018-10-15T14:10:18.695Z,9.80
2018-10-15T14:12:47.638Z,10.00
2018-10-15T14:15:16.636Z,12.00
2018-10-15T14:17:45.602Z,8.30
2018-10-15T14:20:14.616Z,8.33
2018-10-15T14:22:44.381Z,12.13
2018-10-15T14:25:14.203Z,12.10
2018-10-15T14:27:43.241Z,19.32
2018-10-15T14:30:14.444Z,8.95
2018-10-15T14:32:43.426Z,14.23
2018-10-15T14:35:13.440Z,15.35
2018-10-15T14:37:42.944Z,8.60
2018-10-15T14:40:16.136Z,11.73
2018-10-15T14:42:45.190Z,10.30
2018-10-15T14:45:15.258Z,10.08
2018-10-15T14:47:44.246Z,9.80
2018-10-15T14:50:15.482Z,9.10
2018-10-15T14:52:46.599Z,9.48
2018-10-15T14:55:15.558Z,11.30
2018-10-15T14:57:44.530Z,14.83
2018-10-15T15:00:14.511Z,6.58
2018-10-15T15:02:43.466Z,11.87
2018-10-15T15:05:13.015Z,15.90
2018-10-15T15:07:42.050Z,24.18
2018-10-15T15:10:22.975Z,31.73
2018-10-15T15:13:03.335Z,13.18
2018-10-15T15:15:32.319Z,17.10
2018-10-15T15:18:01.402Z,8.17
2018-10-15T15:20:30.437Z,11.43
2018-10-15T15:22:59.365Z,11.00
2018-10-15T15:25:28.335Z,9.18
2018-10-15T15:27:57.313Z,9.15
2018-10-15T15:30:26.295Z,13.23
2018-10-15T15:32:55.343Z,9.23
2018-10-15T15:35:24.223Z,9.07
2018-10-15T15:37:53.158Z,11.60
2018-10-15T15:40:22.141Z,16.52
2018-10-15T15:42:51.098Z,16.40
2018-10-15T15:45:20.095Z,8.50
2018-10-15T15:47:49.047Z,15.07
2018-10-15T15:50:18.042Z,13.53
2018-10-15T15:52:46.990Z,14.03
2018-10-15T15:55:15.964Z,18.83
2018-10-15T15:57:44.905Z,16.27
2018-10-15T16:00:14.219Z,14.67
2018-10-15T16:02:43.358Z,20.77
2018-10-15T16:05:12.439Z,19.67
2018-10-15T16:07:41.404Z,27.67
2018-10-15T16:10:11.302Z,23.10
2018-10-15T16:12:40.280Z,20.25
2018-10-15T16:15:10.062Z,31.85
2018-10-15T16:17:39.203Z,30.30
2018-10-15T16:20:09.005Z,25.70
2018-10-15T16:22:38.005Z,12.57
2018-10-15T16:25:07.234Z,16.50
2018-10-15T16:27:36.578Z,20.72
2018-10-15T16:30:06.431Z,18.95
2018-10-15T16:32:35.427Z,18.02
2018-10-15T16:35:04.749Z,17.07
2018-10-15T16:37:33.671Z,16.42
2018-10-15T16:40:02.598Z,16.32
2018-10-15T16:42:31.676Z,14.77
2018-10-15T16:45:00.603Z,10.23
2018-10-15T16:47:29.560Z,10.50
2018-10-15T16:49:58.594Z,15.10
2018-10-15T16:52:27.554Z,15.72
2018-10-15T16:54:56.479Z,23.30
2018-10-15T16:57:25.455Z,14.87
2018-10-15T17:05:01.631Z,24.63
2018-10-15T17:07:30.602Z,13.15
2018-10-15T17:09:59.536Z,11.60
2018-10-15T17:12:28.474Z,25.13
2018-10-15T17:14:57.403Z,13.87
2018-10-15T17:17:26.371Z,13.13
2018-10-15T17:19:55.286Z,18.43
2018-10-15T17:22:24.239Z,19.30
2018-10-15T17:24:53.178Z,14.20
2018-10-15T17:27:22.131Z,22.13
2018-10-15T17:29:51.176Z,14.23
2018-10-15T17:32:20.134Z,13.53
2018-10-15T17:34:49.071Z,15.65
2018-10-15T17:37:18.027Z,14.05
2018-10-15T17:39:46.970Z,14.18
2018-10-15T17:42:15.949Z,13.97
2018-10-15T17:44:44.875Z,12.80
2018-10-15T17:47:14.250Z,12.47
2018-10-15T17:49:43.183Z,13.97
2018-10-15T17:52:12.241Z,14.38
2018-10-15T17:54:41.119Z,12.88
2018-10-15T17:57:10.110Z,19.17
2018-10-15T17:59:39.059Z,19.80
2018-10-15T18:02:08.011Z,14.30
2018-10-15T18:04:36.966Z,15.20
2018-10-15T18:07:05.946Z,16.73
2018-10-15T18:09:34.883Z,24.77
2018-10-15T18:12:03.917Z,14.58
2018-10-15T18:14:32.809Z,15.00
2018-10-15T18:17:01.773Z,15.07
2018-10-15T18:19:30.716Z,13.08
2018-10-15T18:21:59.650Z,18.73
2018-10-15T18:24:28.611Z,17.25
2018-10-15T18:26:57.556Z,15.40
2018-10-15T18:29:26.805Z,15.23
2018-10-15T18:31:55.882Z,30.05
2018-10-15T18:34:24.886Z,26.70
2018-10-15T18:36:53.868Z,15.07
2018-10-15T18:39:23.205Z,22.73
2018-10-15T18:41:52.187Z,19.80
2018-10-15T18:44:21.145Z,33.28
2018-10-15T18:46:50.077Z,18.05
2018-10-15T18:49:19.042Z,21.60
2018-10-15T18:51:48.019Z,18.27
2018-10-15T18:54:16.926Z,16.73
2018-10-15T18:56:45.875Z,14.70
2018-10-15T18:59:14.814Z,17.77
2018-10-15T19:01:43.767Z,13.53
2018-10-15T19:04:12.731Z,19.17
2018-10-15T19:06:41.798Z,15.20
2018-10-15T19:09:11.687Z,16.05
2018-10-15T19:11:41.043Z,20.70
2018-10-15T19:14:10.677Z,18.90
2018-10-15T19:16:39.646Z,25.03
2018-10-15T19:19:09.231Z,14.03
2018-10-15T19:21:38.123Z,17.50
2018-10-15T19:24:07.160Z,12.03
2018-10-15T19:26:36.075Z,18.00
2018-10-15T19:29:05.085Z,20.43
2018-10-15T19:31:33.986Z,22.80
2018-10-15T19:34:02.940Z,21.03
2018-10-15T19:36:31.874Z,13.90
2018-10-15T19:39:01.006Z,15.95
2018-10-15T19:41:29.957Z,15.17
2018-10-15T19:43:58.900Z,14.10
2018-10-15T19:46:27.974Z,14.23
2018-10-15T19:48:56.943Z,14.97
2018-10-15T19:51:25.869Z,14.17
2018-10-15T19:53:54.814Z,18.30
2018-10-15T19:56:23.767Z,23.15
2018-10-15T19:58:52.743Z,21.83
2018-10-15T20:01:21.674Z,14.50
2018-10-15T20:03:50.753Z,15.30
2018-10-15T20:06:19.712Z,18.07
2018-10-15T20:08:48.714Z,18.27
2018-10-15T20:11:17.683Z,17.40
2018-10-15T20:13:46.662Z,21.00
2018-10-15T20:16:15.646Z,14.25
2018-10-15T20:18:44.723Z,15.97
2018-10-15T20:21:14.251Z,19.57
2018-10-15T20:23:43.234Z,15.63
2018-10-15T20:26:12.171Z,23.10
2018-10-15T20:28:41.204Z,21.77
2018-10-15T20:31:10.167Z,18.90
2018-10-15T20:33:39.126Z,16.97
2018-10-15T20:36:08.098Z,17.10
2018-10-15T20:38:37.077Z,18.30
2018-10-15T20:41:06.194Z,19.33
2018-10-15T20:43:35.181Z,17.83
2018-10-15T20:46:04.223Z,22.58
2018-10-15T20:48:33.256Z,15.68
2018-10-15T20:51:02.305Z,23.00
2018-10-15T20:53:31.241Z,15.17
2018-10-15T20:56:00.342Z,19.13
2018-10-15T20:58:29.299Z,18.03
2018-10-15T21:00:58.311Z,16.83
2018-10-15T21:03:27.366Z,22.27
2018-10-15T21:05:56.379Z,24.32
2018-10-15T21:08:25.554Z,17.90
2018-10-15T21:10:54.591Z,17.70
2018-10-15T21:13:23.634Z,23.38
2018-10-15T21:15:52.730Z,19.70
2018-10-15T21:18:21.898Z,19.10
2018-10-15T21:25:56.757Z,21.90
2018-10-15T21:28:25.826Z,20.12
2018-10-15T21:30:54.911Z,19.42
2018-10-15T21:33:23.869Z,18.95
2018-10-15T21:35:52.974Z,23.80
2018-10-15T21:38:22.039Z,19.60
2018-10-15T21:40:51.019Z,19.15
2018-10-15T21:43:20.103Z,20.15
2018-10-15T21:45:49.253Z,22.53
2018-10-15T21:48:18.202Z,21.10
2018-10-15T21:50:47.227Z,19.77
2018-10-15T21:53:16.185Z,19.80
2018-10-15T21:55:45.290Z,16.67
2018-10-15T21:58:14.283Z,14.20
2018-10-15T22:00:48.526Z,17.70
2018-10-15T22:03:17.639Z,15.90
2018-10-15T22:05:46.633Z,16.30
2018-10-15T22:08:15.627Z,15.93
2018-10-15T22:10:44.619Z,20.48
2018-10-15T22:13:13.582Z,21.33
2018-10-15T22:15:42.543Z,17.30
2018-10-15T22:18:12.245Z,16.95
2018-10-15T22:20:41.223Z,24.30
2018-10-15T22:23:10.233Z,17.82
2018-10-15T22:25:39.182Z,18.13
2018-10-15T22:28:08.435Z,17.03
2018-10-15T22:30:37.452Z,19.65
2018-10-15T22:33:06.427Z,23.87
2018-10-15T22:35:35.378Z,18.37
2018-10-15T22:38:04.355Z,18.67
2018-10-15T22:40:33.318Z,17.92
2018-10-15T22:43:02.333Z,19.03
2018-10-15T22:45:31.344Z,19.45
2018-10-15T22:48:00.320Z,18.17
2018-10-15T22:50:29.266Z,20.00
2018-10-15T22:52:58.233Z,17.27
2018-10-15T22:55:27.198Z,15.60
2018-10-15T22:57:56.182Z,18.98
2018-10-15T23:00:25.159Z,17.95
2018-10-15T23:02:54.125Z,17.32
2018-10-15T23:05:23.088Z,24.45
2018-10-15T23:07:52.054Z,18.60
2018-10-15T23:10:26.299Z,22.32
2018-10-15T23:12:55.275Z,16.85
2018-10-15T23:15:24.231Z,17.10
2018-10-15T23:17:53.268Z,16.73
2018-10-15T23:20:22.250Z,17.70
2018-10-15T23:22:51.246Z,17.35
2018-10-15T23:25:20.217Z,18.70
2018-10-15T23:27:49.214Z,17.02
2018-10-15T23:30:18.191Z,18.20
2018-10-15T23:32:47.195Z,18.60
2018-10-15T23:35:16.174Z,21.52
2018-10-15T23:37:45.155Z,18.92
2018-10-15T23:40:14.679Z,19.62
2018-10-15T23:42:43.666Z,18.73
2018-10-15T23:45:13.074Z,17.62
2018-10-15T23:47:42.282Z,19.87
2018-10-15T23:50:13.320Z,16.17
2018-10-15T23:52:42.327Z,19.98
2018-10-15T23:55:12.441Z,17.77
2018-10-15T23:57:41.455Z,16.80
